Time;durP1;ratioP1;P1;durP2;ratioP2;P2;SDS_P1;SDS_P2;PMS_P1;PMS_P2;Temp;Humidity;BMP_temperature;BMP_pressure;BME280_temperature;BME280_humidity;BME280_pressure;Samples;Min_cycle;Max_cycle;Signal;HPM_P1;HPM_P2
2022/05/04 00:00:21;;;;;;;5.50;4.17;;;;;;;16.18;100.00;95169.00;5096928;28;20211;-53
2022/05/04 00:02:47;;;;;;;4.80;4.30;;;;;;;16.07;100.00;95168.59;5096344;28;20195;-53
2022/05/04 00:05:12;;;;;;;4.70;4.30;;;;;;;16.12;100.00;95175.53;5096246;28;20193;-55
2022/05/04 00:07:38;;;;;;;5.80;5.20;;;;;;;16.17;100.00;95166.69;5096337;28;20221;-60
2022/05/04 00:10:05;;;;;;;6.60;5.13;;;;;;;16.19;100.00;95159.53;5096146;28;20191;-59
2022/05/04 00:12:30;;;;;;;7.17;5.00;;;;;;;16.20;100.00;95172.09;5096244;28;20183;-61
2022/05/04 00:14:55;;;;;;;6.17;5.13;;;;;;;16.10;100.00;95162.19;5096463;28;20237;-61
2022/05/04 00:17:21;;;;;;;5.40;4.90;;;;;;;16.14;100.00;95173.88;5096093;28;20183;-61
2022/05/04 00:19:47;;;;;;;6.23;5.17;;;;;;;16.09;100.00;95171.69;5096492;28;20535;-61
2022/05/04 00:22:23;;;;;;;6.37;5.60;;;;;;;15.98;100.00;95164.97;5096076;28;20195;-61
2022/05/04 00:24:48;;;;;;;7.23;5.50;;;;;;;16.00;100.00;95163.31;5095570;28;20231;-60
2022/05/04 00:27:15;;;;;;;6.40;5.07;;;;;;;15.90;100.00;95169.97;5096204;28;20183;-55
2022/05/04 00:29:44;;;;;;;6.67;5.43;;;;;;;15.98;100.00;95163.00;5096148;28;20281;-59
2022/05/04 00:32:14;;;;;;;6.30;5.60;;;;;;;16.01;100.00;95153.84;5096510;28;20220;-60
2022/05/04 00:34:40;;;;;;;6.73;6.13;;;;;;;15.94;100.00;95165.09;5096151;28;20194;-59
2022/05/04 00:37:06;;;;;;;6.77;5.07;;;;;;;15.88;100.00;95166.88;5095928;28;20329;-60
2022/05/04 00:39:31;;;;;;;6.27;5.27;;;;;;;15.95;100.00;95172.16;5095925;28;20203;-60
2022/05/04 00:42:26;;;;;;;7.63;5.50;;;;;;;15.95;100.00;95161.13;5096290;28;20188;-60
2022/05/04 00:44:51;;;;;;;7.83;5.43;;;;;;;16.07;100.00;95171.34;5074491;28;20282;-60
2022/05/04 00:47:18;;;;;;;6.23;5.63;;;;;;;16.00;100.00;95174.34;5095956;28;20267;-58
2022/05/04 00:49:49;;;;;;;5.77;5.27;;;;;;;16.32;100.00;95171.28;5096399;28;20307;-57
2022/05/04 00:52:16;;;;;;;6.03;5.30;;;;;;;16.57;100.00;95172.47;5096239;28;20245;-57
2022/05/04 00:54:43;;;;;;;5.80;5.20;;;;;;;16.60;100.00;95171.59;5095701;28;20199;-60
2022/05/04 00:57:10;;;;;;;6.57;5.17;;;;;;;16.54;100.00;95176.91;5095719;28;20192;-58
2022/05/04 00:59:37;;;;;;;6.50;5.47;;;;;;;16.62;100.00;95180.16;5095555;28;20204;-59
2022/05/04 01:02:03;;;;;;;5.97;5.40;;;;;;;16.57;100.00;95180.75;5095975;28;20201;-59
2022/05/04 01:04:28;;;;;;;5.57;5.07;;;;;;;16.50;100.00;95178.22;5095965;28;20199;-57
2022/05/04 01:06:54;;;;;;;7.40;5.50;;;;;;;16.46;100.00;95183.09;5095622;28;20188;-64
2022/05/04 01:09:20;;;;;;;5.83;5.23;;;;;;;16.48;100.00;95175.91;5096002;28;20196;-65
2022/05/04 01:11:46;;;;;;;5.50;5.03;;;;;;;16.59;100.00;95175.53;5095356;28;20187;-63
2022/05/04 01:14:13;;;;;;;5.37;4.87;;;;;;;16.73;100.00;95177.81;5095268;28;20198;-65
2022/05/04 01:16:40;;;;;;;6.27;5.67;;;;;;;16.55;100.00;95185.91;5113683;28;20217;-63
2022/05/04 01:19:06;;;;;;;6.40;5.47;;;;;;;16.50;100.00;95178.22;5095753;28;20210;-64
2022/05/04 01:21:33;;;;;;;6.67;5.07;;;;;;;16.51;100.00;95174.25;5095974;28;20236;-61
2022/05/04 01:23:59;;;;;;;5.77;5.27;;;;;;;15.94;100.00;95165.09;5095568;28;20200;-62
2022/05/04 01:26:24;;;;;;;5.80;5.30;;;;;;;15.92;100.00;95173.03;5095544;28;20221;-62
2022/05/04 01:28:49;;;;;;;5.53;4.90;;;;;;;15.94;100.00;95175.34;5095562;28;20199;-62
2022/05/04 01:31:15;;;;;;;5.63;5.13;;;;;;;15.92;100.00;95172.28;5095405;28;20190;-64
2022/05/04 01:33:41;;;;;;;5.33;4.83;;;;;;;15.98;100.00;95168.50;5095544;28;20546;-65
2022/05/04 01:36:07;;;;;;;5.47;4.97;;;;;;;15.99;100.00;95172.81;5098360;28;20183;-64
2022/05/04 01:38:33;;;;;;;6.00;5.43;;;;;;;16.06;100.00;95172.56;5099243;28;20211;-64
2022/05/04 01:40:59;;;;;;;5.70;5.20;;;;;;;16.09;100.00;95171.69;5098394;28;20191;-60
2022/05/04 01:43:26;;;;;;;5.60;5.10;;;;;;;16.05;100.00;95171.03;5098911;28;20240;-54
2022/05/04 01:45:51;;;;;;;5.93;5.33;;;;;;;16.06;100.00;95169.81;5098450;28;20175;-55
2022/05/04 01:48:17;;;;;;;6.07;5.47;;;;;;;16.15;100.00;95174.66;5098720;28;20315;-55
2022/05/04 01:50:42;;;;;;;6.60;5.90;;;;;;;15.97;100.00;95164.22;5098611;28;20305;-55
2022/05/04 01:53:08;;;;;;;7.67;6.97;;;;;;;15.95;100.00;95163.88;5098673;28;20201;-56
2022/05/04 01:55:34;;;;;;;6.70;5.57;;;;;;;15.93;100.00;95174.59;5098404;28;20198;-55
2022/05/04 01:58:00;;;;;;;5.53;5.03;;;;;;;16.01;100.00;95164.09;5098468;28;20199;-58
2022/05/04 02:00:26;;;;;;;6.07;5.50;;;;;;;16.18;100.00;95163.50;5098764;28;20212;-61
2022/05/04 02:02:53;;;;;;;6.10;5.50;;;;;;;16.05;100.00;95170.25;5098412;28;20188;-59
2022/05/04 02:05:18;;;;;;;6.27;5.67;;;;;;;15.99;100.00;95163.78;5098095;28;20211;-58
2022/05/04 02:07:44;;;;;;;5.70;5.10;;;;;;;16.06;100.00;95160.78;5098522;28;20282;-59
2022/05/04 02:10:11;;;;;;;7.20;5.90;;;;;;;16.17;100.00;95170.22;5098290;28;20195;-58
2022/05/04 02:12:36;;;;;;;6.83;5.17;;;;;;;15.90;100.00;95158.94;5098150;28;20529;-58
2022/05/04 02:15:04;;;;;;;5.40;4.90;;;;;;;15.94;100.00;95169.84;5097708;28;20180;-61
2022/05/04 02:17:30;;;;;;;5.93;4.83;;;;;;;15.81;100.00;95167.09;5097821;28;20187;-62
2022/05/04 02:19:55;;;;;;;5.87;5.03;;;;;;;15.78;100.00;95165.22;5097807;28;20695;-60
2022/05/04 02:22:21;;;;;;;5.70;5.10;;;;;;;15.84;100.00;95160.69;5098489;28;20195;-60
2022/05/04 02:24:46;;;;;;;5.77;5.27;;;;;;;15.96;100.00;95154.41;5097894;28;20236;-60
2022/05/04 02:27:11;;;;;;;5.47;4.97;;;;;;;15.92;100.00;95145.47;5115913;28;20201;-59
2022/05/04 02:29:37;;;;;;;6.27;5.17;;;;;;;15.84;100.00;95157.16;5097853;28;20192;-60
2022/05/04 02:32:02;;;;;;;5.77;5.17;;;;;;;16.12;100.00;95154.28;5098050;28;20187;-59
2022/05/04 02:34:27;;;;;;;5.90;5.30;;;;;;;16.05;100.00;95160.00;5097690;28;20184;-59
2022/05/04 02:39:37;;;;;;;6.10;5.07;;;;;;;16.06;100.00;95153.28;5116119;28;20234;-54
2022/05/04 02:42:02;;;;;;;6.23;5.43;;;;;;;16.10;100.00;95156.69;5098300;28;20175;-52
2022/05/04 02:44:28;;;;;;;5.77;5.17;;;;;;;16.04;100.00;95155.72;5097533;28;20184;-52
2022/05/04 02:46:53;;;;;;;6.60;5.03;;;;;;;15.99;100.00;95163.78;5096654;28;20209;-56
2022/05/04 02:49:19;;;;;;;5.50;5.00;;;;;;;15.94;100.00;95154.09;5097757;28;20234;-56
2022/05/04 02:51:44;;;;;;;6.13;5.57;;;;;;;15.94;100.00;95154.09;5097996;28;20202;-56
2022/05/04 02:54:10;;;;;;;5.73;5.23;;;;;;;15.88;100.00;95150.34;5098173;28;20283;-61
2022/05/04 02:56:36;;;;;;;6.67;5.30;;;;;;;15.80;100.00;95154.53;5097465;28;20219;-67
2022/05/04 02:59:01;;;;;;;7.00;5.27;;;;;;;15.80;100.00;95153.75;5097323;28;20240;-67
2022/05/04 03:04:11;;;;;;;7.03;5.73;;;;;;;15.67;100.00;95151.00;5116006;28;20201;-68
2022/05/04 03:06:39;;;;;;;6.07;5.57;;;;;;;15.63;100.00;95155.88;5097143;28;20281;-68
2022/05/04 03:09:06;;;;;;;6.03;5.43;;;;;;;15.60;100.00;95154.03;5097002;28;20173;-68
2022/05/04 03:14:18;;;;;;;6.30;5.70;;;;;;;15.69;100.00;95154.09;5115849;28;20232;-67
2022/05/04 03:16:44;;;;;;;6.07;5.10;;;;;;;15.63;100.00;95160.63;5097174;28;20210;-54
2022/05/04 03:19:10;;;;;;;7.33;6.03;;;;;;;15.54;100.00;95147.50;5096887;28;20219;-53
2022/05/04 03:21:35;;;;;;;6.90;6.20;;;;;;;15.53;100.00;95150.69;5097494;28;20201;-56
2022/05/04 03:24:01;;;;;;;7.80;5.80;;;;;;;15.52;100.00;95149.16;5097077;28;20194;-54
2022/05/04 03:26:27;;;;;;;8.17;6.10;;;;;;;15.54;100.00;95141.22;5097404;28;20203;-54
2022/05/04 03:28:52;;;;;;;6.23;5.67;;;;;;;15.53;100.00;95140.47;5097163;28;20198;-55
2022/05/04 03:31:18;;;;;;;6.70;6.00;;;;;;;15.60;100.00;95140.25;5096947;28;20189;-59
2022/05/04 03:33:44;;;;;;;6.93;5.70;;;;;;;15.62;100.00;95143.31;5096770;28;20191;-54
2022/05/04 03:36:09;;;;;;;6.50;5.90;;;;;;;15.57;100.00;95143.88;5097147;28;20207;-54
2022/05/04 03:38:48;;;;;;;10.40;8.40;;;;;;;15.60;100.00;95151.25;5097447;28;20208;-51
2022/05/04 03:41:14;;;;;;;11.40;9.47;;;;;;;15.54;100.00;95150.25;5097138;28;20191;-56
2022/05/04 03:43:39;;;;;;;8.43;6.23;;;;;;;15.57;100.00;95146.63;5097236;28;20318;-55
2022/05/04 03:46:44;;;;;;;6.70;6.00;;;;;;;15.51;100.00;95142.88;5096706;28;20194;-57
2022/05/04 03:49:10;;;;;;;8.10;6.50;;;;;;;15.60;100.00;95151.25;5067549;28;20244;-60
2022/05/04 03:51:35;;;;;;;6.93;6.20;;;;;;;15.60;100.00;95145.75;5096631;28;20186;-60
2022/05/04 03:54:03;;;;;;;8.30;6.20;;;;;;;15.54;100.00;95146.72;5096353;28;20215;-60
2022/05/04 03:56:29;;;;;;;7.33;6.37;;;;;;;15.53;100.00;95151.47;5096891;28;20193;-61
2022/05/04 03:58:54;;;;;;;8.90;6.13;;;;;;;15.58;100.00;95142.66;5096450;28;20255;-60
2022/05/04 04:01:20;;;;;;;7.13;6.20;;;;;;;15.58;100.00;95152.91;5096665;28;20199;-60
2022/05/04 04:03:46;;;;;;;7.33;6.63;;;;;;;15.62;100.00;95153.56;5096381;28;20206;-61
2022/05/04 04:06:11;;;;;;;6.53;5.93;;;;;;;15.67;100.00;95164.78;5096443;28;20186;-60
2022/05/04 04:08:37;;;;;;;8.40;7.10;;;;;;;15.73;100.00;95165.78;5096986;28;20194;-56
2022/05/04 04:11:03;;;;;;;11.20;8.83;;;;;;;15.90;100.00;95169.97;5096758;28;20192;-60
2022/05/04 04:13:29;;;;;;;7.40;6.60;;;;;;;15.68;100.00;95171.06;5096399;28;20209;-60
2022/05/04 04:15:55;;;;;;;6.43;5.83;;;;;;;15.69;100.00;95170.63;5096136;28;20186;-60
2022/05/04 04:18:25;;;;;;;6.43;5.83;;;;;;;15.79;100.00;95180.53;5096269;28;20194;-60
2022/05/04 04:23:35;;;;;;;6.83;6.13;;;;;;;15.96;100.00;95183.94;5114486;28;20271;-60
2022/05/04 04:26:02;;;;;;;7.00;6.20;;;;;;;16.13;100.00;95166.81;5096043;28;20233;-58
2022/05/04 04:28:28;;;;;;;7.53;6.30;;;;;;;16.17;100.00;95178.50;5096560;28;20189;-71
2022/05/04 04:30:53;;;;;;;7.03;6.33;;;;;;;16.31;100.00;95175.28;5096599;28;20181;-70
2022/05/04 04:33:19;;;;;;;9.07;6.17;;;;;;;16.37;100.00;95176.25;5095962;28;20188;-69
2022/05/04 04:35:44;;;;;;;7.47;6.27;;;;;;;16.61;100.00;95173.13;5096014;28;20186;-68
2022/05/04 04:38:09;;;;;;;8.77;6.83;;;;;;;16.52;100.00;95178.53;5095912;28;20180;-69
2022/05/04 04:40:35;;;;;;;6.60;5.87;;;;;;;16.40;100.00;95175.34;5095981;28;20180;-67
2022/05/04 04:43:00;;;;;;;7.53;5.73;;;;;;;16.52;100.00;95181.28;5096413;28;20196;-70
2022/05/04 04:45:29;;;;;;;7.07;5.83;;;;;;;16.70;100.00;95173.19;5096621;28;20183;-55
2022/05/04 04:47:56;;;;;;;6.23;5.30;;;;;;;17.13;100.00;95181.47;5095921;28;20187;-58
2022/05/04 04:50:24;;;;;;;7.67;5.50;;;;;;;17.22;100.00;95184.28;5095933;28;20215;-57
2022/05/04 04:52:50;;;;;;;5.73;5.13;;;;;;;17.49;100.00;95187.22;5096207;28;20191;-55
2022/05/04 04:55:15;;;;;;;6.13;4.83;;;;;;;17.51;100.00;95190.28;5095805;28;20188;-58
2022/05/04 04:57:40;;;;;;;6.03;4.77;;;;;;;17.49;100.00;95190.00;5095662;28;20188;-58
2022/05/04 05:00:08;;;;;;;6.10;4.97;;;;;;;17.57;100.00;95185.72;5096074;28;20204;-59
2022/05/04 05:02:36;;;;;;;5.13;4.30;;;;;;;17.48;100.00;95191.22;5096018;28;20199;-57
2022/05/04 05:05:03;;;;;;;6.60;5.40;;;;;;;17.57;100.00;95188.50;5095288;28;20229;-60
2022/05/04 05:07:28;;;;;;;7.90;6.87;;;;;;;17.54;100.00;95195.69;5095527;28;20184;-61
2022/05/04 05:09:54;;;;;;;5.33;4.53;;;;;;;17.52;100.00;95187.06;5096826;28;20201;-61
2022/05/04 05:12:21;;;;;;;5.87;4.03;;;;;;;17.48;100.00;95191.22;5099583;28;20283;-60
2022/05/04 05:17:32;;;;;;;4.63;3.73;;;;;;;17.48;100.00;95185.69;5117469;28;20205;-59
2022/05/04 05:19:57;;;;;;;4.43;3.77;;;;;;;17.24;100.00;95190.13;5098688;28;20226;-60
2022/05/04 05:22:23;;;;;;;5.63;4.20;;;;;;;17.30;100.00;95196.59;5098773;28;20184;-67
2022/05/04 05:24:48;;;;;;;5.17;3.80;;;;;;;17.21;100.00;95188.25;5098742;28;20192;-61
2022/05/04 05:27:14;;;;;;;4.50;3.70;;;;;;;17.34;100.00;95186.19;5098779;28;20198;-61
2022/05/04 05:29:40;;;;;;;5.07;3.80;;;;;;;17.44;100.00;95185.06;5099119;28;20307;-59
2022/05/04 05:32:05;;;;;;;5.60;4.20;;;;;;;17.47;100.00;95189.66;5098598;28;20195;-63
2022/05/04 05:34:33;;;;;;;6.03;4.60;;;;;;;17.58;100.00;95187.25;5098419;28;20266;-61
2022/05/04 05:36:59;;;;;;;4.93;4.10;;;;;;;17.57;100.00;95182.97;5098599;28;20184;-60
2022/05/04 05:39:24;;;;;;;4.37;3.93;;;;;;;17.70;100.00;95189.19;5098677;28;20572;-61
2022/05/04 05:41:50;;;;;;;4.87;4.37;;;;;;;17.48;100.00;95191.22;5098645;28;20184;-70
2022/05/04 05:44:15;;;;;;;7.13;6.23;;;;;;;17.52;100.00;95192.59;5098197;28;20215;-70
2022/05/04 05:46:40;;;;;;;5.87;4.53;;;;;;;17.60;100.00;95195.88;5098279;28;20232;-71
2022/05/04 05:49:06;;;;;;;4.97;4.37;;;;;;;17.59;100.00;95197.09;5098139;28;20208;-69
2022/05/04 05:51:31;;;;;;;4.77;4.37;;;;;;;17.76;100.00;95201.16;5098338;28;20218;-68
2022/05/04 05:53:56;;;;;;;5.73;4.60;;;;;;;17.80;100.00;95208.09;5098216;28;20183;-73
2022/05/04 05:56:22;;;;;;;4.83;4.17;;;;;;;17.93;100.00;95205.22;5116502;28;20183;-70
2022/05/04 05:58:47;;;;;;;5.40;4.53;;;;;;;17.99;100.00;95212.47;5098501;28;20204;-60
2022/05/04 06:01:15;;;;;;;4.93;4.33;;;;;;;18.03;100.00;95217.88;5098660;28;20199;-65
2022/05/04 06:03:40;;;;;;;5.83;4.93;;;;;;;18.28;100.00;95218.38;5098539;28;20183;-65
2022/05/04 06:06:06;;;;;;;6.07;4.50;;;;;;;18.40;100.00;95222.31;5098142;28;20176;-65
2022/05/04 06:08:31;;;;;;;4.57;4.17;;;;;;;18.67;100.00;95225.09;5097973;28;20275;-66
2022/05/04 06:19:14;;;;;;;6.90;4.07;;;;;;;18.95;100.00;95235.72;4994694;28;20314;-61
2022/05/04 06:21:39;;;;;;;5.10;4.20;;;;;;;19.02;100.00;95231.91;4993563;28;20295;-60
2022/05/04 06:24:05;;;;;;;5.70;5.07;;;;;;;19.26;100.00;95241.13;4995477;28;20214;-59
2022/05/04 06:26:31;;;;;;;5.67;4.80;;;;;;;19.40;100.00;95248.81;4994899;28;20203;-59
2022/05/04 06:28:56;;;;;;;7.00;5.93;;;;;;;19.58;100.00;95254.34;4995047;28;20204;-52
2022/05/04 06:34:11;;;;;;;4.73;4.10;;;;;;;20.63;100.00;95260.44;4996239;28;20203;-65
2022/05/04 06:36:40;;;;;;;4.30;3.70;;;;;;;21.21;100.00;95259.91;4995160;28;20257;-64
2022/05/04 06:39:10;;;;;;;5.23;4.10;;;;;;;21.47;100.00;95272.03;4994980;28;20220;-64
2022/05/04 06:41:36;;;;;;;3.67;3.37;;;;;;;21.66;100.00;95279.75;4995285;28;20259;-64
2022/05/04 06:44:03;;;;;;;3.77;3.17;;;;;;;21.45;100.00;95278.06;5010943;28;20211;-64
2022/05/04 06:46:28;;;;;;;3.70;3.40;;;;;;;21.63;100.00;95280.69;4994554;28;20244;-64
2022/05/04 06:48:53;;;;;;;3.83;2.90;;;;;;;22.33;98.11;95295.59;4995092;28;20346;-58
2022/05/04 06:51:19;;;;;;;3.83;3.53;;;;;;;22.88;93.53;95292.91;4995301;28;20207;-62
2022/05/04 06:53:44;;;;;;;3.33;3.03;;;;;;;23.27;89.12;95292.19;4994547;28;20203;-69
2022/05/04 06:56:10;;;;;;;3.87;3.30;;;;;;;24.14;82.80;95291.63;4994886;28;20200;-69
2022/05/04 06:58:36;;;;;;;3.10;2.80;;;;;;;25.52;74.40;95289.78;4994345;28;20246;-71
2022/05/04 07:01:03;;;;;;;3.07;2.87;;;;;;;24.12;77.74;95287.81;4994555;28;20204;-69
2022/05/04 07:03:29;;;;;;;4.13;3.03;;;;;;;25.00;75.70;95294.09;4995750;28;20287;-69
2022/05/04 07:05:54;;;;;;;3.13;2.83;;;;;;;28.30;60.06;95293.25;4994759;28;20207;-71
2022/05/04 07:08:20;;;;;;;2.90;2.70;;;;;;;29.86;51.49;95288.41;4996272;28;20199;-60
2022/05/04 07:10:45;;;;;;;3.10;2.90;;;;;;;31.00;45.75;95287.19;4994530;28;20203;-56
2022/05/04 07:13:10;;;;;;;4.20;2.70;;;;;;;31.70;41.88;95292.00;4994621;28;20234;-55
2022/05/04 07:15:36;;;;;;;3.17;2.63;;;;;;;30.95;43.74;95296.47;4994411;28;20202;-55
2022/05/04 07:18:01;;;;;;;2.70;2.50;;;;;;;30.25;43.86;95294.25;4994190;28;20207;-56
2022/05/04 07:20:27;;;;;;;2.50;2.30;;;;;;;31.21;42.35;95288.09;4994271;28;20222;-56
2022/05/04 07:22:52;;;;;;;2.83;2.60;;;;;;;30.87;42.16;95284.31;4994518;28;20242;-55
2022/05/04 07:25:18;;;;;;;2.83;2.50;;;;;;;31.33;40.81;95289.41;4994620;28;20200;-63
2022/05/04 07:27:43;;;;;;;2.47;2.27;;;;;;;31.22;41.01;95292.41;4994338;28;20204;-60
2022/05/04 07:30:09;;;;;;;2.50;2.30;;;;;;;31.62;40.49;95273.44;4994165;28;20297;-66
2022/05/04 07:32:34;;;;;;;3.20;2.30;;;;;;;33.02;37.41;95282.56;4993640;28;20254;-66
2022/05/04 07:35:00;;;;;;;2.63;2.17;;;;;;;31.76;37.51;95277.75;4994111;28;20203;-66
2022/05/04 07:37:26;;;;;;;2.30;2.10;;;;;;;32.69;37.26;95286.22;4993960;28;20212;-65
2022/05/04 07:42:35;;;;;;;2.85;2.10;;;;;;;34.93;31.83;95282.41;4995765;28;20206;-66
2022/05/04 07:45:03;;;;;;;2.40;2.20;;;;;;;35.03;32.76;95277.66;4993889;28;20259;-49
2022/05/04 07:47:31;;;;;;;2.72;2.45;;;;;;;35.79;29.58;95273.41;4994646;28;20204;-54
2022/05/04 07:49:57;;;;;;;2.38;2.10;;;;;;;36.47;29.92;95273.94;4994056;28;20206;-50
2022/05/04 07:52:23;;;;;;;2.78;1.98;;;;;;;36.73;28.18;95281.94;4994127;28;20250;-53
2022/05/04 07:54:48;;;;;;;2.45;2.05;;;;;;;37.34;27.18;95274.47;4993623;28;20205;-50
2022/05/04 07:57:14;;;;;;;3.35;2.13;;;;;;;38.09;25.94;95273.72;4993900;28;20209;-53
2022/05/04 07:59:40;;;;;;;2.60;2.40;;;;;;;38.79;25.57;95273.75;4993574;28;20314;-54
2022/05/04 08:04:49;;;;;;;2.30;2.10;;;;;;;39.17;24.10;95279.66;4995012;28;20306;-62
2022/05/04 08:07:16;;;;;;;2.42;2.20;;;;;;;37.65;25.12;95278.56;4993808;28;20235;-71
2022/05/04 08:09:41;;;;;;;2.42;2.22;;;;;;;37.08;25.41;95283.59;4993405;28;20258;-69
2022/05/04 08:12:08;;;;;;;2.03;1.92;;;;;;;37.33;26.17;95281.53;4993399;28;20168;-69
2022/05/04 08:14:34;;;;;;;4.97;4.57;;;;;;;37.89;25.92;95277.75;4994025;28;20199;-69
2022/05/04 08:17:00;;;;;;;4.07;2.10;;;;;;;37.62;25.63;95288.31;4994065;28;20204;-69
2022/05/04 08:19:26;;;;;;;4.05;2.20;;;;;;;37.67;25.54;95281.59;4993708;28;20212;-68
2022/05/04 08:21:52;;;;;;;2.30;2.10;;;;;;;38.01;25.24;95275.88;4993321;28;20214;-60
2022/05/04 08:24:17;;;;;;;2.42;2.22;;;;;;;36.41;26.11;95279.06;4994545;28;20196;-65
2022/05/04 08:26:43;;;;;;;2.00;1.77;;;;;;;36.31;27.53;95283.88;4993409;28;20231;-65
2022/05/04 08:29:09;;;;;;;2.30;2.08;;;;;;;36.45;27.66;95279.47;4993172;28;20223;-64
2022/05/04 08:31:34;;;;;;;2.10;2.00;;;;;;;36.48;27.14;95283.97;4993357;28;20206;-65
2022/05/04 08:34:00;;;;;;;2.30;2.08;;;;;;;37.95;25.27;95278.25;4993017;28;20234;-67
2022/05/04 08:36:26;;;;;;;1.92;1.77;;;;;;;38.71;24.33;95284.53;4993330;28;20200;-65
2022/05/04 08:38:52;;;;;;;2.83;2.55;;;;;;;37.96;24.24;95279.75;4993369;28;20216;-47
2022/05/04 08:41:18;;;;;;;4.30;2.00;;;;;;;37.99;25.59;95283.53;4993238;28;20175;-55
2022/05/04 08:43:44;;;;;;;2.95;1.75;;;;;;;39.25;23.78;95274.56;4993594;28;20230;-54
2022/05/04 08:46:15;;;;;;;2.63;1.90;;;;;;;39.00;23.67;95282.59;4995883;28;20204;-53
2022/05/04 08:48:43;;;;;;;3.00;2.20;;;;;;;36.64;24.71;95274.75;4996459;28;20200;-50
2022/05/04 08:51:09;;;;;;;1.90;1.73;;;;;;;34.26;27.44;95274.47;4996471;28;20249;-49
2022/05/04 08:53:35;;;;;;;2.30;1.70;;;;;;;32.69;29.57;95281.31;4996548;28;20334;-50
2022/05/04 08:56:00;;;;;;;6.40;5.80;;;;;;;31.96;31.16;95277.88;4996804;28;20239;-52
2022/05/04 08:58:26;;;;;;;3.70;3.40;;;;;;;30.82;32.77;95282.38;4996921;28;20207;-71
2022/05/04 09:00:51;;;;;;;3.33;2.30;;;;;;;29.39;33.85;95284.34;4996438;28;20199;-68
2022/05/04 09:03:18;;;;;;;2.42;2.20;;;;;;;28.53;35.28;95282.59;4996336;28;20275;-66
2022/05/04 09:05:46;;;;;;;3.22;2.92;;;;;;;28.64;35.56;95283.28;4996011;28;20188;-66
2022/05/04 09:08:12;;;;;;;2.10;1.90;;;;;;;28.04;36.33;95276.03;4996759;28;20196;-66
2022/05/04 09:10:43;;;;;;;2.70;2.50;;;;;;;30.67;33.45;95273.63;4996697;28;20172;-67
2022/05/04 09:13:10;;;;;;;2.30;2.10;;;;;;;30.98;32.35;95275.66;4996715;28;20230;-67
2022/05/04 09:15:38;;;;;;;2.33;2.00;;;;;;;29.28;34.63;95273.22;4996167;28;20204;-52
2022/05/04 09:18:16;;;;;;;2.77;2.10;;;;;;;28.01;36.92;95280.66;4996514;28;20207;-72
2022/05/04 09:20:51;;;;;;;2.00;1.80;;;;;;;27.70;38.83;95277.47;4996029;28;20286;-66
2022/05/04 09:23:28;;;;;;;2.30;2.00;;;;;;;27.98;38.75;95272.50;4997378;28;20255;-65
2022/05/04 09:25:56;;;;;;;6.17;2.27;;;;;;;30.07;34.68;95269.66;4996635;28;20196;-65
2022/05/04 09:28:26;;;;;;;3.37;2.00;;;;;;;31.58;32.51;95268.13;4996314;28;20203;-66
2022/05/04 09:30:55;;;;;;;2.40;2.00;;;;;;;32.47;31.13;95264.88;4996400;28;20180;-66
2022/05/04 09:33:29;;;;;;;2.27;2.07;;;;;;;31.18;34.11;95264.50;4995744;28;20195;-65
2022/05/04 09:36:00;;;;;;;2.10;1.90;;;;;;;27.99;40.25;95272.00;4995872;28;20246;-52
2022/05/04 09:46:51;;;;;;;2.60;1.93;;;;;;;26.71;57.45;95281.34;4997142;28;20210;-65
2022/05/04 09:49:21;;;;;;;2.00;1.70;;;;;;;26.35;45.91;95273.94;4996235;28;20234;-65
2022/05/04 09:51:50;;;;;;;1.90;1.70;;;;;;;26.29;46.45;95272.41;4996049;28;20258;-65
2022/05/04 09:54:17;;;;;;;3.30;1.87;;;;;;;26.21;45.42;95268.56;5012264;28;20239;-66
2022/05/04 09:56:51;;;;;;;2.17;1.77;;;;;;;26.08;48.38;95268.31;4995316;28;20225;-64
2022/05/04 09:59:19;;;;;;;1.70;1.60;;;;;;;25.88;50.01;95274.09;4995714;28;20245;-65
2022/05/04 10:01:45;;;;;;;2.07;1.97;;;;;;;25.77;44.93;95262.88;4995462;28;20287;-64
2022/05/04 10:04:11;;;;;;;2.13;1.67;;;;;;;25.86;43.40;95257.84;4996665;28;20238;-64
2022/05/04 10:06:37;;;;;;;2.53;1.77;;;;;;;25.61;44.57;95258.78;4995568;28;20210;-65
2022/05/04 10:09:05;;;;;;;2.13;1.70;;;;;;;25.51;45.20;95249.09;4995237;28;20230;-64
2022/05/04 10:11:34;;;;;;;2.27;1.93;;;;;;;25.10;46.01;95253.47;4995224;28;20203;-70
2022/05/04 10:14:07;;;;;;;1.83;1.73;;;;;;;24.78;47.34;95249.25;4995905;28;20204;-71
2022/05/04 10:16:39;;;;;;;2.90;2.10;;;;;;;23.79;49.52;95246.38;4995058;28;20218;-53
2022/05/04 10:19:08;;;;;;;2.10;1.90;;;;;;;23.56;52.10;95241.81;4995192;28;20242;-51
2022/05/04 10:21:34;;;;;;;2.97;2.03;;;;;;;23.15;55.71;95239.53;4995165;28;20272;-55
2022/05/04 10:24:02;;;;;;;2.60;1.90;;;;;;;22.96;55.90;95247.44;4995211;28;20294;-55
2022/05/04 10:26:35;;;;;;;3.63;2.20;;;;;;;21.62;64.89;95262.47;4995179;28;20215;-53
2022/05/04 10:31:56;;;;;;;2.83;2.40;;;;;;;21.91;65.28;95251.41;4996206;28;20266;-67
2022/05/04 10:34:22;;;;;;;3.93;2.47;;;;;;;21.85;67.20;95247.75;4995399;28;20211;-60
2022/05/04 10:36:51;;;;;;;3.00;2.17;;;;;;;22.51;64.40;95241.75;4995165;28;20207;-61
2022/05/04 10:39:21;;;;;;;3.53;2.03;;;;;;;22.84;67.33;95231.06;4995322;28;20228;-61
2022/05/04 10:41:47;;;;;;;2.90;2.20;;;;;;;22.02;72.19;95234.91;4994999;28;20207;-60
2022/05/04 10:44:12;;;;;;;4.27;2.50;;;;;;;22.27;76.36;95242.63;4994626;28;20200;-61
2022/05/04 10:46:40;;;;;;;3.20;2.40;;;;;;;21.61;75.79;95246.28;4994977;28;20210;-61
2022/05/04 10:49:08;;;;;;;2.53;2.10;;;;;;;22.07;74.62;95239.78;4994703;28;20282;-58
2022/05/04 10:51:39;;;;;;;2.83;2.20;;;;;;;21.59;71.22;95230.06;4995407;28;20221;-48
2022/05/04 10:54:08;;;;;;;2.60;2.10;;;;;;;21.86;71.47;95232.59;4994626;28;20183;-50
2022/05/04 10:56:43;;;;;;;3.93;2.20;;;;;;;22.15;71.94;95238.13;4994608;28;20207;-52
2022/05/04 10:59:09;;;;;;;2.77;2.43;;;;;;;22.08;77.22;95227.38;4995186;28;20290;-49
2022/05/04 11:01:37;;;;;;;5.20;2.37;;;;;;;22.16;73.24;95234.13;4994584;28;20243;-52
2022/05/04 11:04:11;;;;;;;4.37;3.80;;;;;;;22.18;75.51;95231.59;4994380;28;20227;-50
2022/05/04 11:06:43;;;;;;;3.00;2.70;;;;;;;22.42;74.13;95229.44;5010923;28;20206;-52
2022/05/04 11:09:12;;;;;;;3.50;2.30;;;;;;;23.47;75.09;95216.13;4994151;28;20210;-66
2022/05/04 11:11:39;;;;;;;3.00;2.40;;;;;;;25.68;62.51;95210.72;5010705;28;20207;-68
2022/05/04 11:14:06;;;;;;;2.80;2.40;;;;;;;25.50;62.50;95202.81;4994393;28;20195;-64
2022/05/04 11:16:33;;;;;;;2.90;2.50;;;;;;;25.28;74.97;95208.31;4994795;28;20211;-65
2022/05/04 11:18:59;;;;;;;2.60;2.40;;;;;;;24.40;67.65;95213.41;4994532;28;20200;-66
2022/05/04 11:21:27;;;;;;;4.10;2.70;;;;;;;24.08;67.52;95204.28;4994067;28;20204;-65
2022/05/04 11:23:55;;;;;;;3.43;2.47;;;;;;;23.80;66.85;95213.66;4993844;28;20215;-66
2022/05/04 11:26:26;;;;;;;4.83;3.13;;;;;;;24.10;66.56;95207.34;4994058;28;20204;-56
2022/05/04 11:28:52;;;;;;;4.63;2.63;;;;;;;24.31;62.86;95210.81;4994035;28;20282;-64
2022/05/04 11:31:19;;;;;;;3.83;2.33;;;;;;;24.94;59.98;95206.63;4994109;28;20210;-64
2022/05/04 11:33:47;;;;;;;3.83;2.70;;;;;;;25.86;55.91;95210.25;4994546;28;20200;-65
2022/05/04 11:36:13;;;;;;;5.77;2.80;;;;;;;25.86;60.07;95207.44;4993974;28;20239;-65
2022/05/04 11:38:39;;;;;;;3.97;2.73;;;;;;;25.38;59.46;95197.69;4993713;28;20250;-65
2022/05/04 11:41:05;;;;;;;3.57;2.90;;;;;;;25.04;59.99;95191.19;4993958;28;20263;-62
2022/05/04 11:43:33;;;;;;;4.83;3.63;;;;;;;24.12;67.08;95192.91;4993706;28;20258;-63
2022/05/04 11:46:11;;;;;;;3.27;2.97;;;;;;;23.95;64.33;95195.56;4993537;28;20172;-67
2022/05/04 11:48:42;;;;;;;4.97;3.03;;;;;;;24.23;66.39;95195.78;4994232;28;20211;-63
2022/05/04 11:51:09;;;;;;;3.90;3.37;;;;;;;23.97;69.18;95187.44;4993625;28;20203;-61
2022/05/04 11:53:34;;;;;;;4.37;3.80;;;;;;;23.83;88.32;95193.91;4994084;28;20207;-62
2022/05/04 11:56:06;;;;;;;3.70;3.40;;;;;;;23.96;84.47;95183.13;4993417;28;20328;-62
2022/05/04 11:58:34;;;;;;;3.50;3.03;;;;;;;23.80;85.10;95180.19;4993747;28;20208;-62
2022/05/04 12:01:01;;;;;;;3.40;3.10;;;;;;;23.70;83.21;95189.97;4994242;28;20230;-62
2022/05/04 12:03:28;;;;;;;3.60;3.27;;;;;;;23.71;83.15;95186.69;4993995;28;20226;-58
2022/05/04 12:05:54;;;;;;;4.70;3.77;;;;;;;24.25;80.98;95180.06;4994079;28;20338;-69
2022/05/04 12:08:21;;;;;;;4.10;3.40;;;;;;;24.40;77.57;95185.50;4993423;28;20188;-67